createdAt,value
2019-03-23T00:01:51.635Z,28.52
2019-03-23T00:04:20.057Z,25.35
2019-03-23T00:06:48.701Z,23.80
2019-03-23T00:09:16.999Z,23.55
2019-03-23T00:11:45.278Z,24.30
2019-03-23T00:14:13.556Z,24.00
2019-03-23T00:16:42.151Z,23.45
2019-03-23T00:19:10.525Z,25.05
2019-03-23T00:21:39.115Z,27.40
2019-03-23T00:24:07.451Z,26.00
2019-03-23T00:26:35.702Z,26.27
2019-03-23T00:29:03.922Z,26.15
2019-03-23T00:31:32.283Z,26.52
2019-03-23T00:34:01.304Z,29.95
2019-03-23T00:36:29.632Z,29.18
2019-03-23T00:38:58.260Z,31.05
2019-03-23T00:41:27.129Z,30.40
2019-03-23T00:43:55.711Z,29.75
2019-03-23T00:46:25.230Z,28.17
2019-03-23T00:48:54.248Z,28.10
2019-03-23T00:51:22.446Z,25.92
2019-03-23T00:53:51.246Z,25.35
2019-03-23T00:56:19.776Z,25.10
2019-03-23T00:58:48.151Z,23.45
2019-03-23T01:01:16.700Z,24.02
2019-03-23T01:03:45.246Z,21.10
2019-03-23T01:06:13.921Z,22.30
2019-03-23T01:08:42.491Z,23.10
2019-03-23T01:11:10.834Z,23.87
2019-03-23T01:13:39.458Z,22.58
2019-03-23T01:16:07.804Z,23.70
2019-03-23T01:18:37.727Z,23.62
2019-03-23T01:21:05.986Z,24.37
2019-03-23T01:23:34.616Z,22.10
2019-03-23T01:26:03.045Z,19.80
2019-03-23T01:28:34.990Z,21.60
2019-03-23T01:31:03.192Z,21.35
2019-03-23T01:33:31.922Z,21.55
2019-03-23T01:36:00.595Z,21.95
2019-03-23T01:38:29.166Z,22.48
2019-03-23T01:40:57.607Z,19.75
2019-03-23T01:43:26.207Z,20.40
2019-03-23T01:45:54.459Z,21.42
2019-03-23T01:48:24.361Z,20.70
2019-03-23T01:50:53.156Z,20.52
2019-03-23T01:53:23.023Z,21.20
2019-03-23T01:55:51.227Z,19.95
2019-03-23T01:58:19.542Z,21.87
2019-03-23T02:00:51.203Z,23.80
2019-03-23T02:03:19.801Z,21.45
2019-03-23T02:05:48.064Z,23.67
2019-03-23T02:08:17.574Z,22.15
2019-03-23T02:10:46.183Z,23.32
2019-03-23T02:13:14.847Z,23.65
2019-03-23T02:15:43.173Z,21.93
2019-03-23T02:18:11.878Z,23.38
2019-03-23T02:20:40.134Z,22.20
2019-03-23T02:23:08.462Z,21.05
2019-03-23T02:25:37.118Z,20.95
2019-03-23T02:28:06.648Z,21.45
2019-03-23T02:30:36.182Z,20.82
2019-03-23T02:33:04.496Z,21.55
2019-03-23T02:35:33.138Z,21.48
2019-03-23T02:38:01.768Z,20.27
2019-03-23T02:40:29.982Z,19.98
2019-03-23T02:43:00.363Z,19.52
2019-03-23T02:45:30.487Z,21.70
2019-03-23T02:47:58.906Z,21.35
2019-03-23T02:50:27.287Z,20.08
2019-03-23T02:52:55.572Z,20.95
2019-03-23T02:55:24.185Z,22.02
2019-03-23T02:57:52.412Z,20.57
2019-03-23T03:00:20.727Z,20.15
2019-03-23T03:02:53.265Z,19.85
2019-03-23T03:05:21.839Z,18.98
2019-03-23T03:07:55.243Z,18.92
2019-03-23T03:10:37.981Z,20.20
2019-03-23T03:13:06.862Z,19.92
2019-03-23T03:15:35.469Z,19.57
2019-03-23T03:18:03.991Z,20.65
2019-03-23T03:20:32.215Z,19.25
2019-03-23T03:23:00.685Z,19.55
2019-03-23T03:25:31.091Z,19.73
2019-03-23T03:27:59.393Z,20.48
2019-03-23T03:30:27.928Z,20.68
2019-03-23T03:32:59.675Z,21.90
2019-03-23T03:35:27.899Z,22.00
2019-03-23T03:37:57.428Z,22.58
2019-03-23T03:40:25.988Z,20.40
2019-03-23T03:42:54.427Z,22.22
2019-03-23T03:45:24.970Z,21.80
2019-03-23T03:47:57.100Z,22.13
2019-03-23T03:50:25.588Z,21.07
2019-03-23T03:52:55.937Z,19.77
2019-03-23T03:55:25.406Z,19.70
2019-03-23T03:57:57.852Z,20.00
2019-03-23T04:00:26.141Z,19.30
2019-03-23T04:02:55.585Z,18.02
2019-03-23T04:05:23.888Z,18.73
2019-03-23T04:07:52.899Z,21.02
2019-03-23T04:10:21.301Z,18.12
2019-03-23T04:12:50.741Z,20.75
2019-03-23T04:15:19.117Z,19.27
2019-03-23T04:17:49.725Z,20.05
2019-03-23T04:20:18.063Z,19.77
2019-03-23T04:22:47.149Z,18.95
2019-03-23T04:25:15.362Z,18.42
2019-03-23T04:27:43.587Z,18.80
2019-03-23T04:30:12.419Z,19.15
2019-03-23T04:32:40.700Z,19.10
2019-03-23T04:35:09.454Z,19.27
2019-03-23T04:37:38.096Z,19.27
2019-03-23T04:40:08.147Z,21.52
2019-03-23T04:42:36.717Z,20.97
2019-03-23T04:45:07.198Z,23.62
2019-03-23T04:47:35.702Z,22.70
2019-03-23T04:50:05.255Z,25.35
2019-03-23T04:52:33.457Z,25.45
2019-03-23T04:55:01.832Z,25.57
2019-03-23T04:57:33.631Z,24.65
2019-03-23T05:00:02.367Z,23.77
2019-03-23T05:02:30.602Z,23.70
2019-03-23T05:04:59.273Z,26.07
2019-03-23T05:07:27.628Z,26.80
2019-03-23T05:09:56.254Z,24.27
2019-03-23T05:12:24.612Z,27.62
2019-03-23T05:14:53.747Z,26.17
2019-03-23T05:17:25.653Z,23.98
2019-03-23T05:19:54.719Z,25.17
2019-03-23T05:22:23.475Z,23.02
2019-03-23T05:24:52.043Z,22.25
2019-03-23T05:27:20.400Z,21.93
2019-03-23T05:29:49.352Z,22.15
2019-03-23T05:32:17.764Z,21.80
2019-03-23T05:34:46.034Z,19.80
2019-03-23T05:37:15.105Z,22.93
2019-03-23T05:39:43.458Z,22.30
2019-03-23T05:42:13.270Z,21.15
2019-03-23T05:44:42.827Z,21.50
2019-03-23T05:47:11.160Z,20.55
2019-03-23T05:49:39.867Z,22.48
2019-03-23T05:52:08.451Z,23.50
2019-03-23T05:54:37.538Z,21.68
2019-03-23T05:57:06.178Z,21.37
2019-03-23T05:59:34.888Z,22.77
2019-03-23T06:02:03.286Z,20.62
2019-03-23T06:04:32.213Z,21.95
2019-03-23T06:07:00.594Z,21.27
2019-03-23T06:09:28.867Z,21.17
2019-03-23T06:11:57.966Z,22.55
2019-03-23T06:14:27.834Z,25.25
2019-03-23T06:16:58.130Z,22.20
2019-03-23T06:19:26.491Z,22.93
2019-03-23T06:21:55.097Z,23.20
2019-03-23T06:24:23.411Z,24.37
2019-03-23T06:26:52.071Z,25.02
2019-03-23T06:29:20.306Z,25.45
2019-03-23T06:31:48.667Z,21.20
2019-03-23T06:34:16.970Z,21.15
2019-03-23T06:36:45.210Z,24.50
2019-03-23T06:39:15.679Z,21.15
2019-03-23T06:41:44.710Z,21.90
2019-03-23T06:44:15.863Z,20.88
2019-03-23T06:46:45.299Z,22.40
2019-03-23T06:49:13.566Z,22.75
2019-03-23T06:51:41.780Z,23.73
2019-03-23T06:54:10.120Z,24.70
2019-03-23T06:56:38.807Z,26.65
2019-03-23T06:59:08.328Z,27.55
2019-03-23T07:01:37.023Z,25.20
2019-03-23T07:04:05.700Z,23.80
2019-03-23T07:06:34.284Z,22.80
2019-03-23T07:09:03.848Z,22.70
2019-03-23T07:11:32.930Z,22.07
2019-03-23T07:14:01.187Z,19.55
2019-03-23T07:16:29.851Z,20.75
2019-03-23T07:18:58.583Z,55.27
2019-03-23T07:21:27.223Z,24.40
2019-03-23T07:23:56.866Z,21.60
2019-03-23T07:26:25.103Z,22.40
2019-03-23T07:28:53.374Z,20.70
2019-03-23T07:31:22.797Z,21.80
2019-03-23T07:33:51.109Z,23.07
2019-03-23T07:36:19.393Z,23.60
2019-03-23T07:38:47.656Z,24.67
2019-03-23T07:41:17.087Z,24.37
2019-03-23T07:43:46.667Z,24.20
2019-03-23T07:46:15.287Z,25.80
2019-03-23T07:48:45.458Z,23.10
2019-03-23T07:51:13.910Z,21.13
2019-03-23T07:53:42.260Z,20.40
2019-03-23T07:56:12.198Z,21.27
2019-03-23T07:58:40.984Z,19.20
2019-03-23T08:01:09.525Z,20.60
2019-03-23T08:03:40.975Z,20.53
2019-03-23T08:06:11.042Z,21.37
2019-03-23T08:08:39.988Z,21.17
2019-03-23T08:11:08.361Z,21.90
2019-03-23T08:13:36.991Z,21.77
2019-03-23T08:16:05.312Z,22.87
2019-03-23T08:18:33.927Z,20.63
2019-03-23T08:21:04.495Z,21.00
2019-03-23T08:23:33.431Z,21.20
2019-03-23T08:26:03.243Z,20.10
2019-03-23T08:28:32.523Z,21.03
2019-03-23T08:31:02.337Z,19.47
2019-03-23T08:33:30.633Z,18.50
2019-03-23T08:35:59.439Z,20.57
2019-03-23T08:38:27.912Z,21.30
2019-03-23T08:41:00.887Z,21.20
2019-03-23T08:43:29.424Z,21.40
2019-03-23T08:45:57.650Z,19.70
2019-03-23T08:48:25.909Z,22.00
2019-03-23T08:50:57.186Z,19.67
2019-03-23T08:53:25.488Z,17.43
2019-03-23T08:55:56.516Z,18.80
2019-03-23T08:58:29.547Z,16.80
2019-03-23T09:01:01.673Z,16.20
2019-03-23T09:03:30.017Z,16.37
2019-03-23T09:06:00.707Z,16.30
2019-03-23T09:08:29.024Z,17.97
2019-03-23T09:10:58.089Z,16.83
2019-03-23T09:13:26.364Z,17.30
2019-03-23T09:15:56.180Z,15.67
2019-03-23T09:18:24.563Z,15.50
2019-03-23T09:20:53.209Z,15.33
2019-03-23T09:23:21.956Z,15.63
2019-03-23T09:25:53.546Z,14.60
2019-03-23T09:28:22.240Z,15.33
2019-03-23T09:30:51.780Z,14.00
2019-03-23T09:33:20.430Z,14.43
2019-03-23T09:35:49.130Z,15.50
2019-03-23T09:38:19.766Z,13.10
2019-03-23T09:40:48.081Z,11.77
2019-03-23T09:43:16.392Z,13.43
2019-03-23T09:45:46.742Z,14.53
2019-03-23T09:48:15.349Z,14.10
2019-03-23T09:50:45.874Z,14.30
2019-03-23T09:53:14.597Z,13.17
2019-03-23T09:55:43.087Z,13.47
2019-03-23T09:58:11.775Z,14.67
2019-03-23T10:00:40.796Z,14.00
2019-03-23T10:03:09.503Z,13.17
2019-03-23T10:05:43.517Z,13.23
2019-03-23T10:08:15.552Z,12.50
2019-03-23T10:10:44.244Z,15.30
2019-03-23T10:13:12.858Z,12.83
2019-03-23T10:15:42.219Z,12.67
2019-03-23T10:18:10.699Z,14.47
2019-03-23T10:20:39.395Z,12.63
2019-03-23T10:23:08.046Z,14.00
2019-03-23T10:25:36.776Z,13.10
2019-03-23T10:28:07.376Z,14.57
2019-03-23T10:30:35.675Z,13.53
2019-03-23T10:33:03.930Z,13.53
2019-03-23T10:35:32.219Z,13.43
2019-03-23T10:38:00.552Z,12.67
2019-03-23T10:40:32.750Z,12.43
2019-03-23T10:43:00.867Z,13.37
2019-03-23T10:45:30.438Z,14.20
2019-03-23T10:47:59.398Z,13.27
2019-03-23T10:50:28.039Z,14.23
2019-03-23T10:52:57.632Z,12.97
2019-03-23T10:55:27.067Z,13.73
2019-03-23T10:57:55.693Z,12.80
2019-03-23T11:00:27.313Z,12.67
2019-03-23T11:02:57.556Z,11.60
2019-03-23T11:05:31.553Z,13.10
2019-03-23T11:08:01.835Z,12.03
2019-03-23T11:10:31.439Z,13.77
2019-03-23T11:12:59.785Z,12.37
2019-03-23T11:15:29.213Z,14.10
2019-03-23T11:17:57.536Z,13.13
2019-03-23T11:20:27.118Z,12.47
2019-03-23T11:22:55.870Z,13.87
2019-03-23T11:25:25.117Z,13.67
2019-03-23T11:27:53.458Z,13.73
2019-03-23T11:30:21.765Z,13.30
2019-03-23T11:32:50.024Z,13.57
2019-03-23T11:35:21.737Z,12.43
2019-03-23T11:37:51.355Z,13.20
2019-03-23T11:40:21.393Z,12.80
2019-03-23T11:42:50.534Z,13.80
2019-03-23T11:45:23.362Z,13.23
2019-03-23T11:47:52.396Z,13.10
2019-03-23T11:50:26.475Z,12.27
2019-03-23T11:52:55.025Z,14.10
2019-03-23T11:55:24.393Z,13.43
2019-03-23T11:57:52.879Z,13.20
2019-03-23T12:00:21.282Z,13.00
2019-03-23T12:02:49.831Z,12.97
2019-03-23T12:05:18.195Z,13.30
2019-03-23T12:07:46.834Z,13.20
2019-03-23T12:10:15.283Z,12.77
2019-03-23T12:12:43.765Z,13.10
2019-03-23T12:15:17.845Z,12.57
2019-03-23T12:17:47.091Z,11.77
2019-03-23T12:20:15.299Z,12.70
2019-03-23T12:22:43.856Z,11.00
2019-03-23T12:25:12.782Z,12.43
2019-03-23T12:27:41.313Z,13.60
2019-03-23T12:30:12.640Z,12.83
2019-03-23T12:32:43.354Z,11.80
2019-03-23T12:35:12.229Z,11.40
2019-03-23T12:37:43.471Z,11.73
2019-03-23T12:40:12.218Z,11.20
2019-03-23T12:42:40.660Z,12.47
2019-03-23T12:45:09.759Z,11.17
2019-03-23T12:47:37.990Z,10.73
2019-03-23T12:50:07.403Z,12.43
2019-03-23T12:52:38.312Z,10.50
2019-03-23T12:55:08.043Z,11.57
2019-03-23T12:57:36.403Z,11.57
2019-03-23T13:00:08.682Z,12.03
2019-03-23T13:02:37.913Z,12.03
2019-03-23T13:05:06.845Z,10.37
2019-03-23T13:07:35.297Z,11.20
2019-03-23T13:10:04.615Z,11.70
2019-03-23T13:12:33.116Z,10.80
2019-03-23T13:15:01.379Z,10.80
2019-03-23T13:17:29.645Z,11.13
2019-03-23T13:19:58.348Z,11.43
2019-03-23T13:22:27.041Z,10.37
2019-03-23T13:24:55.340Z,10.97
2019-03-23T13:27:24.744Z,10.90
2019-03-23T13:29:53.535Z,11.40
2019-03-23T13:32:24.166Z,11.47
2019-03-23T13:34:52.517Z,10.37
2019-03-23T13:37:21.181Z,9.40
2019-03-23T13:39:49.451Z,10.83
2019-03-23T13:42:17.765Z,16.03
2019-03-23T13:44:46.445Z,11.80
2019-03-23T13:47:15.158Z,9.73
2019-03-23T13:49:43.752Z,9.30
2019-03-23T13:52:12.103Z,9.33
2019-03-23T13:54:40.505Z,9.43
2019-03-23T13:57:09.048Z,10.60
2019-03-23T13:59:37.672Z,13.23
2019-03-23T14:02:07.576Z,14.70
2019-03-23T14:04:35.906Z,8.50
2019-03-23T14:07:04.409Z,18.13
2019-03-23T14:09:33.493Z,8.60
2019-03-23T14:12:01.987Z,7.97
2019-03-23T14:14:30.604Z,7.47
2019-03-23T14:16:58.954Z,9.27
2019-03-23T14:19:27.244Z,16.20
2019-03-23T14:21:55.860Z,10.33
2019-03-23T14:24:24.882Z,9.50
2019-03-23T14:26:54.901Z,7.53
2019-03-23T14:29:23.215Z,10.60
2019-03-23T14:31:51.426Z,7.90
2019-03-23T14:34:20.150Z,11.50
2019-03-23T14:36:48.488Z,6.17
2019-03-23T14:39:17.757Z,5.20
2019-03-23T14:41:46.194Z,6.17
2019-03-23T14:44:15.712Z,5.20
2019-03-23T14:46:47.734Z,5.90
2019-03-23T14:49:18.077Z,6.07
2019-03-23T14:51:46.804Z,5.70
2019-03-23T14:54:15.378Z,6.07
2019-03-23T14:56:45.309Z,6.50
2019-03-23T14:59:14.413Z,6.20
2019-03-23T15:01:45.666Z,7.20
2019-03-23T15:04:14.318Z,7.60
2019-03-23T15:06:42.605Z,7.63
2019-03-23T15:09:10.915Z,7.87
2019-03-23T15:11:39.446Z,6.93
2019-03-23T15:14:07.775Z,6.57
2019-03-23T15:16:36.495Z,7.70
2019-03-23T15:19:05.158Z,7.83
2019-03-23T15:21:34.604Z,7.30
2019-03-23T15:24:03.075Z,7.93
2019-03-23T15:26:31.568Z,8.33
2019-03-23T15:29:00.329Z,8.20
2019-03-23T15:31:28.701Z,8.93
2019-03-23T15:33:59.344Z,9.23
2019-03-23T15:36:29.173Z,8.63
2019-03-23T15:38:57.469Z,7.83
2019-03-23T15:41:25.789Z,7.13
2019-03-23T15:43:54.448Z,8.40
2019-03-23T15:46:23.484Z,7.90
2019-03-23T15:48:51.881Z,8.30
2019-03-23T15:51:20.470Z,8.23
2019-03-23T15:53:50.076Z,12.37
2019-03-23T15:56:18.735Z,11.70
2019-03-23T15:58:48.553Z,15.70
2019-03-23T16:01:18.761Z,16.10
2019-03-23T16:03:48.993Z,14.15
2019-03-23T16:06:17.462Z,10.72
2019-03-23T16:08:49.585Z,18.32
2019-03-23T16:11:18.101Z,20.15
2019-03-23T16:13:47.259Z,14.65
2019-03-23T16:16:15.578Z,15.95
2019-03-23T16:18:45.893Z,14.45
2019-03-23T16:21:15.272Z,15.60
2019-03-23T16:23:49.268Z,18.57
2019-03-23T16:26:17.626Z,16.85
2019-03-23T16:28:46.339Z,14.93
2019-03-23T16:31:16.326Z,9.35
2019-03-23T16:33:46.233Z,11.65
2019-03-23T16:36:14.788Z,13.53
2019-03-23T16:38:43.066Z,16.27
2019-03-23T16:41:18.768Z,11.20
2019-03-23T16:43:48.242Z,13.93
2019-03-23T16:46:16.438Z,10.95
2019-03-23T16:48:48.772Z,10.18
2019-03-23T16:51:17.068Z,8.08
2019-03-23T16:53:47.528Z,7.87
2019-03-23T16:56:16.990Z,7.75
2019-03-23T16:58:50.854Z,7.50
2019-03-23T17:01:20.864Z,7.90
2019-03-23T17:03:56.136Z,8.78
2019-03-23T17:06:28.470Z,8.98
2019-03-23T17:08:57.232Z,8.35
2019-03-23T17:11:26.231Z,8.23
2019-03-23T17:13:54.709Z,8.68
2019-03-23T17:16:23.455Z,8.03
2019-03-23T17:19:27.848Z,7.87
2019-03-23T17:21:59.349Z,9.28
2019-03-23T17:24:30.842Z,8.60
2019-03-23T17:27:01.723Z,7.40
2019-03-23T17:29:55.081Z,8.30
2019-03-23T17:32:23.758Z,8.28
2019-03-23T17:34:52.168Z,9.78
2019-03-23T17:37:20.803Z,8.73
2019-03-23T17:39:50.477Z,10.00
2019-03-23T17:42:20.586Z,10.15
2019-03-23T17:45:00.401Z,12.73
2019-03-23T17:47:29.430Z,14.85
2019-03-23T17:50:02.333Z,16.45
2019-03-23T17:52:30.955Z,15.98
2019-03-23T17:55:04.023Z,14.00
2019-03-23T17:57:33.920Z,13.95
2019-03-23T18:00:04.520Z,14.80
2019-03-23T18:02:33.034Z,15.95
2019-03-23T18:05:01.735Z,16.73
2019-03-23T18:07:30.009Z,15.48
2019-03-23T18:10:00.669Z,14.90
2019-03-23T18:12:29.247Z,16.85
2019-03-23T18:14:58.312Z,16.85
2019-03-23T18:17:29.425Z,16.85
2019-03-23T18:19:58.391Z,17.40
2019-03-23T18:22:28.815Z,17.57
2019-03-23T18:24:57.272Z,17.00
2019-03-23T18:27:29.975Z,18.80
2019-03-23T18:30:03.176Z,17.57
2019-03-23T18:32:32.843Z,19.67
2019-03-23T18:35:03.691Z,20.57
2019-03-23T18:37:33.484Z,21.85
2019-03-23T18:40:03.825Z,21.42
2019-03-23T18:42:34.251Z,21.45
2019-03-23T18:45:04.564Z,21.80
2019-03-23T18:47:33.316Z,21.23
2019-03-23T18:50:06.975Z,22.40
2019-03-23T18:52:36.517Z,22.25
2019-03-23T18:55:05.712Z,23.00
2019-03-23T18:57:34.290Z,22.93
2019-03-23T19:00:02.731Z,24.05
2019-03-23T19:02:32.451Z,22.35
2019-03-23T19:05:00.845Z,24.40
2019-03-23T19:07:29.537Z,23.60
2019-03-23T19:09:59.335Z,24.72
2019-03-23T19:12:29.801Z,23.45
2019-03-23T19:14:59.369Z,24.25
2019-03-23T19:17:30.370Z,24.20
2019-03-23T19:19:58.739Z,24.35
2019-03-23T19:22:27.010Z,21.60
2019-03-23T19:24:57.466Z,22.95
2019-03-23T19:27:26.067Z,24.85
2019-03-23T19:29:55.731Z,23.80
2019-03-23T19:32:27.705Z,25.08
2019-03-23T19:34:57.376Z,26.68
2019-03-23T19:37:26.399Z,26.68
2019-03-23T19:39:54.792Z,23.67
2019-03-23T19:42:23.020Z,22.90
2019-03-23T19:44:51.328Z,25.20
2019-03-23T19:47:19.614Z,24.00
2019-03-23T19:50:07.341Z,24.12
2019-03-23T19:56:08.864Z,28.67
2019-03-23T19:58:42.572Z,30.40
2019-03-23T20:01:11.683Z,30.32
2019-03-23T20:03:43.939Z,26.40
2019-03-23T20:06:12.547Z,26.60
2019-03-23T20:08:41.261Z,24.07
2019-03-23T20:11:10.848Z,21.00
2019-03-23T20:13:41.553Z,24.27
2019-03-23T20:16:10.567Z,25.95
2019-03-23T20:18:42.083Z,28.38
2019-03-23T20:21:22.599Z,28.67
2019-03-23T20:23:52.548Z,25.97
2019-03-23T20:26:22.914Z,26.20
2019-03-23T20:28:52.859Z,26.70
2019-03-23T20:31:21.501Z,26.07
2019-03-23T20:33:53.364Z,26.07
2019-03-23T20:36:21.738Z,22.65
2019-03-23T20:38:50.066Z,24.32
2019-03-23T20:41:18.653Z,24.05
2019-03-23T20:43:47.279Z,23.12
2019-03-23T20:46:18.744Z,21.30
2019-03-23T20:48:53.706Z,20.45
2019-03-23T20:51:23.234Z,20.72
2019-03-23T20:53:53.205Z,18.55
2019-03-23T20:56:21.492Z,18.35
2019-03-23T20:58:52.388Z,19.55
2019-03-23T21:01:21.726Z,19.45
2019-03-23T21:03:50.405Z,17.80
2019-03-23T21:06:18.759Z,19.20
2019-03-23T21:08:47.469Z,20.40
2019-03-23T21:11:17.279Z,21.23
2019-03-23T21:13:50.491Z,20.57
2019-03-23T21:16:19.974Z,21.00
2019-03-23T21:18:50.399Z,22.30
2019-03-23T21:21:19.041Z,22.60
2019-03-23T21:23:47.729Z,22.17
2019-03-23T21:26:16.413Z,21.68
2019-03-23T21:28:47.065Z,23.60
2019-03-23T21:31:15.377Z,22.87
2019-03-23T21:33:44.288Z,25.08
2019-03-23T21:36:14.656Z,23.10
2019-03-23T21:38:45.737Z,24.10
2019-03-23T21:41:14.781Z,25.10
2019-03-23T21:43:44.033Z,22.48
2019-03-23T21:46:14.778Z,24.05
2019-03-23T21:48:44.806Z,23.90
2019-03-23T21:51:13.437Z,25.60
2019-03-23T21:53:41.783Z,24.82
2019-03-23T21:56:11.052Z,25.32
2019-03-23T21:58:39.513Z,25.60
2019-03-23T22:01:08.269Z,28.50
2019-03-23T22:03:37.729Z,30.70
2019-03-23T22:06:06.320Z,29.82
2019-03-23T22:08:34.794Z,28.60
2019-03-23T22:11:03.403Z,30.50
2019-03-23T22:13:32.859Z,30.95
2019-03-23T22:16:01.534Z,34.48
2019-03-23T22:18:32.348Z,36.55
2019-03-23T22:21:00.679Z,40.00
2019-03-23T22:23:29.066Z,33.83
2019-03-23T22:25:57.998Z,31.75
2019-03-23T22:28:27.172Z,40.05
2019-03-23T22:30:56.831Z,41.83
2019-03-23T22:33:26.452Z,45.95
2019-03-23T22:35:55.611Z,44.73
2019-03-23T22:38:24.235Z,47.20
2019-03-23T22:40:53.649Z,45.90
2019-03-23T22:43:24.078Z,41.80
2019-03-23T22:45:53.531Z,30.95
2019-03-23T22:48:26.956Z,32.98
2019-03-23T22:50:57.980Z,34.13
2019-03-23T22:53:28.634Z,35.73
2019-03-23T22:55:57.299Z,40.60
2019-03-23T22:58:25.594Z,40.75
2019-03-23T23:00:54.708Z,38.88
2019-03-23T23:03:24.183Z,41.92
2019-03-23T23:05:52.488Z,38.58
2019-03-23T23:08:20.808Z,42.50
2019-03-23T23:10:54.091Z,41.05
2019-03-23T23:13:25.005Z,41.18
2019-03-23T23:15:53.818Z,39.25
2019-03-23T23:18:24.110Z,38.98
2019-03-23T23:20:52.342Z,37.50
2019-03-23T23:23:21.858Z,32.25
2019-03-23T23:25:50.622Z,30.55
2019-03-23T23:28:24.537Z,30.90
2019-03-23T23:30:56.082Z,27.70
2019-03-23T23:33:26.471Z,25.30
2019-03-23T23:35:55.568Z,23.87
2019-03-23T23:38:26.773Z,22.70
2019-03-23T23:40:55.196Z,19.25
2019-03-23T23:43:23.642Z,18.32
2019-03-23T23:45:51.959Z,17.48
2019-03-23T23:48:21.816Z,17.50
2019-03-23T23:50:50.547Z,16.32
2019-03-23T23:53:20.904Z,17.70
2019-03-23T23:55:49.602Z,16.02
2019-03-23T23:58:19.521Z,16.67
